KENL/ENL METAR and TAF weather

Enter ICAO airport designator
Station Type Date Time Source
KENL METAR 2019/08/20 10:30 UTC NOAA

KENL 201030Z AUTO 00000KT 1 1/2SM BR VV007 23/22 A3000 RMK AO2 T02290217


Station Type Date Time Source
KENL Decoded METAR 2019/08/20 10:30 UTC NOAA

Centralia, Centralia Municipal Airport, IL, United States (KENL) 38-30-53N 089-05-32W
Aug 20, 2019 - 06:30 AM EDT / 2019.08.20 1030 UTC
Wind: Calm:0
Visibility: 1 1/2 mile(s):0
Sky conditions: obscured
Weather: mist
Temperature: 73.2 F (22.9 C)
Dew Point: 71.1 F (21.7 C)
Relative Humidity: 92%
Pressure (altimeter): 30 in. Hg (1015 hPa)
ob: KENL 201030Z AUTO 00000KT 1 1/2SM BR VV007 23/22 A3000 RMK AO2 T02290217
cycle: 10

Station Type Date Time Source
KENL TAF UTC NOAA

Error!

Example: see airport list